CPH weather

Copenhagen Kastrup Airport
Copenhagen, Capital Region, Denmark

Public forecast

Using degrees Celsius for public forecast. Weather courtesy of forecast.io.

Current aviation weather report (METAR) for Copenhagen Kastrup Airport

Retrieved 2020/08/05 12:20 UTC (29 minutes ago):

EKCH 051220Z AUTO 18014KT 9999 BKN068/// BKN110/// BKN140/// 22/14 Q1016 NOSIG

Aviation forecast (TAF) for Copenhagen Kastrup Airport

Retrieved 2020/08/05 12:31 UTC (18 minutes ago):

TAF EKCH 051104Z 0512/0612 18015KT 9999 FEW040 BECMG 0518/0520 18005KT